createdAt,value
2022-10-16T00:00:51.395Z,100.00
2022-10-16T00:05:54.183Z,100.00
2022-10-16T00:11:01.599Z,100.00
2022-10-16T00:16:06.647Z,100.00
2022-10-16T00:21:11.808Z,100.00
2022-10-16T00:26:16.414Z,100.00
2022-10-16T00:31:23.025Z,100.00
2022-10-16T00:36:27.536Z,100.00
2022-10-16T00:41:31.544Z,100.00
2022-10-16T00:46:39.097Z,100.00
2022-10-16T00:51:44.454Z,100.00
2022-10-16T00:56:48.402Z,100.00
2022-10-16T01:01:52.996Z,99.70
2022-10-16T01:07:02.948Z,97.54
2022-10-16T01:12:10.474Z,98.13
2022-10-16T01:17:20.789Z,98.03
2022-10-16T01:22:28.150Z,97.38
2022-10-16T01:27:37.449Z,97.30
2022-10-16T01:32:43.746Z,97.60
2022-10-16T01:37:51.339Z,99.19
2022-10-16T01:43:01.920Z,99.97
2022-10-16T01:48:08.859Z,99.76
2022-10-16T01:53:16.055Z,100.00
2022-10-16T01:58:20.368Z,100.00
2022-10-16T02:03:23.561Z,99.36
2022-10-16T02:08:29.183Z,99.07
2022-10-16T02:13:39.595Z,98.73
2022-10-16T02:18:44.479Z,98.61
2022-10-16T02:23:53.471Z,98.75
2022-10-16T02:29:02.606Z,99.41
2022-10-16T02:34:08.516Z,99.27
2022-10-16T02:39:12.687Z,99.24
2022-10-16T02:44:17.076Z,98.94
2022-10-16T02:49:19.881Z,99.16
2022-10-16T02:54:22.764Z,100.00
2022-10-16T02:59:26.887Z,100.00
2022-10-16T03:04:29.650Z,100.00
2022-10-16T03:09:32.542Z,100.00
2022-10-16T03:14:36.799Z,100.00
2022-10-16T03:19:39.578Z,100.00
2022-10-16T03:24:42.353Z,100.00
2022-10-16T03:29:46.498Z,100.00
2022-10-16T03:34:49.327Z,100.00
2022-10-16T03:39:52.510Z,100.00
2022-10-16T03:44:56.696Z,100.00
2022-10-16T03:49:59.616Z,100.00
2022-10-16T03:55:02.597Z,100.00
2022-10-16T04:00:07.927Z,100.00
2022-10-16T04:05:14.769Z,100.00
2022-10-16T04:10:17.859Z,100.00
2022-10-16T04:15:22.033Z,100.00
2022-10-16T04:20:24.909Z,100.00
2022-10-16T04:25:27.810Z,99.96
2022-10-16T04:30:31.955Z,99.71
2022-10-16T04:35:34.738Z,100.00
2022-10-16T04:40:37.928Z,100.00
2022-10-16T04:45:42.280Z,100.00
2022-10-16T04:50:45.066Z,100.00
2022-10-16T04:55:48.228Z,100.00
2022-10-16T05:00:52.507Z,100.00
2022-10-16T05:05:55.786Z,100.00
2022-10-16T05:10:58.616Z,100.00
2022-10-16T05:16:02.809Z,100.00
2022-10-16T05:21:06.797Z,100.00
2022-10-16T05:26:10.771Z,100.00
2022-10-16T05:31:15.006Z,100.00
2022-10-16T05:36:19.206Z,100.00
2022-10-16T05:41:22.918Z,100.00
2022-10-16T05:46:27.088Z,100.00
2022-10-16T05:51:30.154Z,100.00
2022-10-16T05:56:33.266Z,100.00
2022-10-16T06:01:37.430Z,100.00
2022-10-16T06:06:40.302Z,100.00
2022-10-16T06:11:43.261Z,100.00
2022-10-16T06:16:47.376Z,99.92
2022-10-16T06:21:50.200Z,100.00
2022-10-16T06:26:52.955Z,100.00
2022-10-16T06:31:57.062Z,100.00
2022-10-16T06:36:59.797Z,100.00
2022-10-16T06:42:02.514Z,99.09
2022-10-16T06:47:13.557Z,97.94
2022-10-16T06:52:17.076Z,97.31
2022-10-16T06:57:20.493Z,88.83
2022-10-16T07:02:25.211Z,77.58
2022-10-16T07:07:28.420Z,71.93
2022-10-16T07:12:31.212Z,70.49
2022-10-16T07:17:35.306Z,82.78
2022-10-16T07:22:38.043Z,87.97
2022-10-16T07:27:41.020Z,91.17
2022-10-16T07:32:45.232Z,94.92
2022-10-16T07:37:48.553Z,94.91
2022-10-16T07:42:51.379Z,94.15
2022-10-16T07:47:55.516Z,92.88
2022-10-16T07:52:58.309Z,91.47
2022-10-16T07:58:01.528Z,93.74
2022-10-16T08:03:05.912Z,92.99
2022-10-16T08:08:08.804Z,94.42
2022-10-16T08:13:12.166Z,96.83
2022-10-16T08:18:17.169Z,96.58
2022-10-16T08:23:20.293Z,97.52
2022-10-16T08:28:24.136Z,96.74
2022-10-16T08:33:28.260Z,93.69
2022-10-16T08:38:31.218Z,91.40
2022-10-16T08:43:46.734Z,89.67
2022-10-16T08:48:53.748Z,90.52
2022-10-16T08:53:58.911Z,89.77
2022-10-16T08:59:03.310Z,89.49
2022-10-16T09:04:27.970Z,86.57
2022-10-16T09:09:56.496Z,85.42
2022-10-16T09:15:08.908Z,85.71
2022-10-16T09:20:31.252Z,84.48
2022-10-16T09:25:35.774Z,83.29
2022-10-16T09:30:40.348Z,81.50
2022-10-16T09:35:46.571Z,81.39
2022-10-16T09:40:58.841Z,79.62
2022-10-16T09:46:08.350Z,78.90
2022-10-16T09:51:21.837Z,79.25
2022-10-16T09:56:26.424Z,78.62
2022-10-16T10:01:33.717Z,79.38
2022-10-16T10:06:42.546Z,80.13
2022-10-16T10:11:50.122Z,80.28
2022-10-16T10:16:54.780Z,79.16
2022-10-16T10:21:58.915Z,79.71
2022-10-16T10:27:10.334Z,79.06
2022-10-16T10:32:28.618Z,79.35
2022-10-16T10:37:48.602Z,78.76
2022-10-16T10:42:55.660Z,75.56
2022-10-16T10:48:14.477Z,72.87
2022-10-16T10:53:34.687Z,72.42
2022-10-16T10:59:03.122Z,73.71
2022-10-16T11:04:31.839Z,74.08
2022-10-16T11:09:41.392Z,72.41
2022-10-16T11:14:51.648Z,71.06
2022-10-16T11:19:58.785Z,70.99
2022-10-16T11:25:13.945Z,69.03
2022-10-16T11:30:22.302Z,68.55
2022-10-16T11:35:30.543Z,68.12
2022-10-16T11:40:41.968Z,66.83
2022-10-16T11:45:48.560Z,67.38
2022-10-16T11:50:55.443Z,66.46
2022-10-16T11:55:59.670Z,67.38
2022-10-16T12:01:15.577Z,67.37
2022-10-16T12:06:33.533Z,69.06
2022-10-16T12:11:40.791Z,69.73
2022-10-16T12:16:53.608Z,68.96
2022-10-16T12:21:59.041Z,69.63
2022-10-16T12:27:03.752Z,68.57
2022-10-16T12:32:41.933Z,67.08
2022-10-16T12:37:46.648Z,66.65
2022-10-16T12:42:50.952Z,63.89
2022-10-16T12:47:55.852Z,63.14
2022-10-16T12:52:59.126Z,63.35
2022-10-16T12:58:21.310Z,61.40
2022-10-16T13:04:03.386Z,62.14
2022-10-16T13:09:35.430Z,64.07
2022-10-16T13:15:01.835Z,65.10
2022-10-16T13:20:19.333Z,64.80
2022-10-16T13:25:33.932Z,64.67
2022-10-16T13:30:42.125Z,63.99
2022-10-16T13:35:49.852Z,63.32
2022-10-16T13:40:55.867Z,63.24
2022-10-16T13:46:02.862Z,62.76
2022-10-16T13:51:08.887Z,62.97
2022-10-16T13:56:14.146Z,61.71
2022-10-16T14:01:22.192Z,61.23
2022-10-16T14:06:25.007Z,61.89
2022-10-16T14:11:28.339Z,62.47
2022-10-16T14:16:34.577Z,63.09
2022-10-16T14:21:38.256Z,62.62
2022-10-16T14:26:49.700Z,62.68
2022-10-16T14:31:59.439Z,63.71
2022-10-16T14:42:18.156Z,64.02
2022-10-16T14:47:26.770Z,64.57
2022-10-16T14:52:29.784Z,64.23
2022-10-16T14:57:38.076Z,64.79
2022-10-16T15:02:42.140Z,65.62
2022-10-16T15:07:45.110Z,66.38
2022-10-16T15:12:48.612Z,67.30
2022-10-16T15:17:54.624Z,67.81
2022-10-16T15:22:58.021Z,68.55
2022-10-16T15:28:11.896Z,67.58
2022-10-16T15:33:21.757Z,67.03
2022-10-16T15:38:25.200Z,67.39
2022-10-16T15:43:29.110Z,68.34
2022-10-16T15:48:34.825Z,69.41
2022-10-16T15:53:47.329Z,70.08
2022-10-16T15:58:50.556Z,71.17
2022-10-16T16:03:56.969Z,73.15
2022-10-16T16:14:06.131Z,73.71
2022-10-16T16:19:11.710Z,75.10
2022-10-16T16:24:14.999Z,76.55
2022-10-16T16:29:18.446Z,77.66
2022-10-16T16:34:22.707Z,78.64
2022-10-16T16:39:26.289Z,80.07
2022-10-16T16:44:29.192Z,80.98
2022-10-16T16:49:33.614Z,81.32
2022-10-16T16:54:36.484Z,82.28
2022-10-16T16:59:40.687Z,83.01
2022-10-16T17:04:44.918Z,83.96
2022-10-16T17:09:47.847Z,83.82
2022-10-16T17:14:52.643Z,84.23
2022-10-16T17:19:56.796Z,83.75
2022-10-16T17:24:59.593Z,84.03
2022-10-16T17:30:02.411Z,84.80
2022-10-16T17:35:08.708Z,85.39
2022-10-16T17:45:19.332Z,86.01
2022-10-16T17:50:25.829Z,85.87
2022-10-16T17:55:29.008Z,86.47
2022-10-16T18:00:32.117Z,86.95
2022-10-16T18:05:39.336Z,88.33
2022-10-16T18:10:47.333Z,89.14
2022-10-16T18:16:01.082Z,89.84
2022-10-16T18:21:09.194Z,90.01
2022-10-16T18:26:13.938Z,90.71
2022-10-16T18:31:21.651Z,90.48
2022-10-16T18:36:29.944Z,91.61
2022-10-16T18:41:41.776Z,91.61
2022-10-16T18:46:45.224Z,91.63
2022-10-16T18:51:52.957Z,92.35
2022-10-16T18:56:56.406Z,92.13
2022-10-16T19:01:59.754Z,92.52
2022-10-16T19:07:05.051Z,93.91
2022-10-16T19:12:14.891Z,93.87
2022-10-16T19:17:18.548Z,94.68
2022-10-16T19:22:51.931Z,95.21
2022-10-16T19:27:56.804Z,96.55
2022-10-16T19:33:06.832Z,97.02
2022-10-16T19:38:19.838Z,96.93
2022-10-16T19:43:24.509Z,97.04
2022-10-16T19:48:27.448Z,97.18
2022-10-16T19:53:46.604Z,97.17
2022-10-16T20:13:07.620Z,97.73
2022-10-16T20:18:19.500Z,98.46
2022-10-16T20:38:24.421Z,98.70
2022-10-16T20:48:52.491Z,98.42
2022-10-16T20:53:57.261Z,98.48
2022-10-16T20:59:01.650Z,97.79
2022-10-16T21:04:08.447Z,97.15
2022-10-16T21:09:11.315Z,96.39
2022-10-16T21:14:15.680Z,96.14
2022-10-16T21:19:19.345Z,97.39
2022-10-16T21:24:27.831Z,96.37
2022-10-16T21:29:32.247Z,96.96
2022-10-16T21:34:36.215Z,98.55
2022-10-16T21:39:39.396Z,98.91
2022-10-16T21:44:43.617Z,98.26
2022-10-16T21:49:46.539Z,96.59
2022-10-16T21:54:58.239Z,96.68
2022-10-16T22:00:05.439Z,98.14
2022-10-16T22:05:10.360Z,99.44
2022-10-16T22:10:13.292Z,99.57
2022-10-16T22:15:17.707Z,100.00
2022-10-16T22:20:20.602Z,98.93
2022-10-16T22:25:26.669Z,99.61
2022-10-16T22:30:30.917Z,99.51
2022-10-16T22:35:40.059Z,97.82
2022-10-16T22:40:42.860Z,96.52
2022-10-16T22:45:47.080Z,97.10
2022-10-16T22:50:50.061Z,98.04
2022-10-16T22:55:53.200Z,96.51
2022-10-16T23:06:00.252Z,95.53
2022-10-16T23:11:07.255Z,95.42
2022-10-16T23:16:13.172Z,95.23
2022-10-16T23:21:17.879Z,96.74
2022-10-16T23:26:23.448Z,97.21
2022-10-16T23:31:28.373Z,97.89
2022-10-16T23:36:31.585Z,98.33
2022-10-16T23:41:34.481Z,97.74
2022-10-16T23:46:39.549Z,98.74
2022-10-16T23:51:42.376Z,99.73
2022-10-16T23:56:45.171Z,100.00
